sensor_id;sensor_type;location;lat;lon;timestamp;temperature;humidity
27413;DHT22;14871;52.702;5.230;2023-03-01T00:01:11;7.10;99.90
27413;DHT22;14871;52.702;5.230;2023-03-01T00:03:37;7.00;99.90
27413;DHT22;14871;52.702;5.230;2023-03-01T00:06:04;7.00;99.90
27413;DHT22;14871;52.702;5.230;2023-03-01T00:08:30;7.00;99.90
27413;DHT22;14871;52.702;5.230;2023-03-01T00:11:07;6.90;99.90
27413;DHT22;14871;52.702;5.230;2023-03-01T00:13:33;6.90;99.90
27413;DHT22;14871;52.702;5.230;2023-03-01T00:16:02;6.90;99.90
27413;DHT22;14871;52.702;5.230;2023-03-01T00:18:28;6.80;99.90
27413;DHT22;14871;52.702;5.230;2023-03-01T00:20:55;6.80;99.90
27413;DHT22;14871;52.702;5.230;2023-03-01T00:23:21;6.80;99.90
27413;DHT22;14871;52.702;5.230;2023-03-01T00:25:47;6.70;99.90
27413;DHT22;14871;52.702;5.230;2023-03-01T00:28:13;6.70;99.90
27413;DHT22;14871;52.702;5.230;2023-03-01T00:30:39;6.70;99.90
27413;DHT22;14871;52.702;5.230;2023-03-01T00:33:04;6.70;99.90
27413;DHT22;14871;52.702;5.230;2023-03-01T00:35:32;6.60;99.90
27413;DHT22;14871;52.702;5.230;2023-03-01T00:37:58;6.50;99.90
27413;DHT22;14871;52.702;5.230;2023-03-01T00:40:25;6.50;99.90
27413;DHT22;14871;52.702;5.230;2023-03-01T00:42:51;6.50;99.90
27413;DHT22;14871;52.702;5.230;2023-03-01T00:45:17;6.50;99.90
27413;DHT22;14871;52.702;5.230;2023-03-01T00:47:43;6.40;99.90
27413;DHT22;14871;52.702;5.230;2023-03-01T00:50:10;6.40;99.90
27413;DHT22;14871;52.702;5.230;2023-03-01T00:52:36;6.30;99.90
27413;DHT22;14871;52.702;5.230;2023-03-01T00:55:02;6.30;99.90
27413;DHT22;14871;52.702;5.230;2023-03-01T00:57:27;6.30;99.90
27413;DHT22;14871;52.702;5.230;2023-03-01T00:59:53;6.30;99.90
27413;DHT22;14871;52.702;5.230;2023-03-01T01:02:19;6.20;99.90
27413;DHT22;14871;52.702;5.230;2023-03-01T01:04:45;6.20;99.90
27413;DHT22;14871;52.702;5.230;2023-03-01T01:07:11;6.20;99.90
27413;DHT22;14871;52.702;5.230;2023-03-01T01:09:37;6.10;99.90
27413;DHT22;14871;52.702;5.230;2023-03-01T01:12:03;6.10;99.90
27413;DHT22;14871;52.702;5.230;2023-03-01T01:14:29;6.10;99.90
27413;DHT22;14871;52.702;5.230;2023-03-01T01:16:55;6.10;99.90
27413;DHT22;14871;52.702;5.230;2023-03-01T01:19:21;6.10;99.90
27413;DHT22;14871;52.702;5.230;2023-03-01T01:21:47;6.00;99.90
27413;DHT22;14871;52.702;5.230;2023-03-01T01:24:14;6.00;99.90
27413;DHT22;14871;52.702;5.230;2023-03-01T01:26:40;5.90;99.90
27413;DHT22;14871;52.702;5.230;2023-03-01T01:29:06;5.90;99.90
27413;DHT22;14871;52.702;5.230;2023-03-01T01:31:33;5.90;99.90
27413;DHT22;14871;52.702;5.230;2023-03-01T01:34:01;5.90;99.90
27413;DHT22;14871;52.702;5.230;2023-03-01T01:36:27;5.80;99.90
27413;DHT22;14871;52.702;5.230;2023-03-01T01:38:53;5.80;99.90
27413;DHT22;14871;52.702;5.230;2023-03-01T01:41:20;5.80;99.90
27413;DHT22;14871;52.702;5.230;2023-03-01T01:51:45;5.70;99.90
27413;DHT22;14871;52.702;5.230;2023-03-01T01:54:29;5.70;99.90
27413;DHT22;14871;52.702;5.230;2023-03-01T01:57:02;5.60;99.90
27413;DHT22;14871;52.702;5.230;2023-03-01T01:59:30;5.60;99.90
27413;DHT22;14871;52.702;5.230;2023-03-01T02:02:00;5.60;99.90
27413;DHT22;14871;52.702;5.230;2023-03-01T02:04:28;5.50;99.90
27413;DHT22;14871;52.702;5.230;2023-03-01T02:06:59;5.50;99.90
27413;DHT22;14871;52.702;5.230;2023-03-01T02:09:26;5.50;99.90
27413;DHT22;14871;52.702;5.230;2023-03-01T02:11:53;5.50;99.90
27413;DHT22;14871;52.702;5.230;2023-03-01T02:14:19;5.50;99.90
27413;DHT22;14871;52.702;5.230;2023-03-01T02:16:45;5.50;99.90
27413;DHT22;14871;52.702;5.230;2023-03-01T02:19:20;5.40;99.90
27413;DHT22;14871;52.702;5.230;2023-03-01T02:22:04;5.40;99.90
27413;DHT22;14871;52.702;5.230;2023-03-01T02:27:03;5.50;99.90
27413;DHT22;14871;52.702;5.230;2023-03-01T02:29:29;5.50;99.90
27413;DHT22;14871;52.702;5.230;2023-03-01T02:31:57;5.40;99.90
27413;DHT22;14871;52.702;5.230;2023-03-01T02:34:24;5.40;99.90
27413;DHT22;14871;52.702;5.230;2023-03-01T02:37:02;5.40;99.90
27413;DHT22;14871;52.702;5.230;2023-03-01T02:39:48;5.30;99.90
27413;DHT22;14871;52.702;5.230;2023-03-01T02:42:21;5.30;99.90
27413;DHT22;14871;52.702;5.230;2023-03-01T02:44:49;5.30;99.90
27413;DHT22;14871;52.702;5.230;2023-03-01T02:47:15;5.20;99.90
27413;DHT22;14871;52.702;5.230;2023-03-01T02:49:41;5.20;99.90
27413;DHT22;14871;52.702;5.230;2023-03-01T02:55:11;5.20;99.90
27413;DHT22;14871;52.702;5.230;2023-03-01T02:57:40;5.10;99.90
27413;DHT22;14871;52.702;5.230;2023-03-01T03:00:11;5.10;99.90
27413;DHT22;14871;52.702;5.230;2023-03-01T03:02:45;5.10;99.90
27413;DHT22;14871;52.702;5.230;2023-03-01T03:05:17;5.00;99.90
27413;DHT22;14871;52.702;5.230;2023-03-01T03:07:44;5.10;99.90
27413;DHT22;14871;52.702;5.230;2023-03-01T03:10:20;5.00;99.90
27413;DHT22;14871;52.702;5.230;2023-03-01T03:13:12;5.00;99.90
27413;DHT22;14871;52.702;5.230;2023-03-01T03:15:36;5.00;99.90
27413;DHT22;14871;52.702;5.230;2023-03-01T03:18:06;4.90;99.90
27413;DHT22;14871;52.702;5.230;2023-03-01T03:20:33;4.90;99.90
27413;DHT22;14871;52.702;5.230;2023-03-01T03:22:59;4.90;99.90
27413;DHT22;14871;52.702;5.230;2023-03-01T03:25:26;4.90;99.90
27413;DHT22;14871;52.702;5.230;2023-03-01T03:27:53;4.90;99.90
27413;DHT22;14871;52.702;5.230;2023-03-01T03:30:23;4.80;99.90
27413;DHT22;14871;52.702;5.230;2023-03-01T03:32:49;4.80;99.90
27413;DHT22;14871;52.702;5.230;2023-03-01T03:35:19;4.80;99.90
27413;DHT22;14871;52.702;5.230;2023-03-01T03:37:45;4.70;99.90
27413;DHT22;14871;52.702;5.230;2023-03-01T03:40:40;4.70;99.90
27413;DHT22;14871;52.702;5.230;2023-03-01T03:43:18;4.70;99.90
27413;DHT22;14871;52.702;5.230;2023-03-01T03:45:46;4.70;99.90
27413;DHT22;14871;52.702;5.230;2023-03-01T03:48:11;4.60;99.90
27413;DHT22;14871;52.702;5.230;2023-03-01T03:50:38;4.60;99.90
27413;DHT22;14871;52.702;5.230;2023-03-01T03:53:08;4.60;99.90
27413;DHT22;14871;52.702;5.230;2023-03-01T03:55:35;4.60;99.90
27413;DHT22;14871;52.702;5.230;2023-03-01T03:58:02;4.60;99.90
27413;DHT22;14871;52.702;5.230;2023-03-01T04:00:37;4.60;99.90
27413;DHT22;14871;52.702;5.230;2023-03-01T04:03:03;4.60;99.90
27413;DHT22;14871;52.702;5.230;2023-03-01T04:05:29;4.50;99.90
27413;DHT22;14871;52.702;5.230;2023-03-01T04:07:56;4.50;99.90
27413;DHT22;14871;52.702;5.230;2023-03-01T04:10:36;4.50;99.90
27413;DHT22;14871;52.702;5.230;2023-03-01T04:13:03;4.50;99.90
27413;DHT22;14871;52.702;5.230;2023-03-01T04:15:30;4.40;99.90
27413;DHT22;14871;52.702;5.230;2023-03-01T04:17:57;4.40;99.90
27413;DHT22;14871;52.702;5.230;2023-03-01T04:20:28;4.40;99.90
27413;DHT22;14871;52.702;5.230;2023-03-01T04:23:06;4.40;99.90
27413;DHT22;14871;52.702;5.230;2023-03-01T04:28:20;4.40;99.90
27413;DHT22;14871;52.702;5.230;2023-03-01T04:30:47;4.40;99.90
27413;DHT22;14871;52.702;5.230;2023-03-01T04:33:13;4.30;99.90
27413;DHT22;14871;52.702;5.230;2023-03-01T04:35:38;4.30;99.90
27413;DHT22;14871;52.702;5.230;2023-03-01T04:38:06;4.30;99.90
27413;DHT22;14871;52.702;5.230;2023-03-01T04:40:32;4.30;99.90
27413;DHT22;14871;52.702;5.230;2023-03-01T04:42:57;4.30;99.90
27413;DHT22;14871;52.702;5.230;2023-03-01T04:45:23;4.30;99.90
27413;DHT22;14871;52.702;5.230;2023-03-01T04:47:49;4.30;99.90
27413;DHT22;14871;52.702;5.230;2023-03-01T04:50:18;4.30;99.90
27413;DHT22;14871;52.702;5.230;2023-03-01T04:52:46;4.20;99.90
27413;DHT22;14871;52.702;5.230;2023-03-01T04:55:12;4.20;99.90
27413;DHT22;14871;52.702;5.230;2023-03-01T04:57:38;4.20;99.90
27413;DHT22;14871;52.702;5.230;2023-03-01T05:00:06;4.20;99.90
27413;DHT22;14871;52.702;5.230;2023-03-01T05:03:05;4.20;99.90
27413;DHT22;14871;52.702;5.230;2023-03-01T05:05:33;4.10;99.90
27413;DHT22;14871;52.702;5.230;2023-03-01T05:08:02;4.10;99.90
27413;DHT22;14871;52.702;5.230;2023-03-01T05:10:30;4.10;99.90
27413;DHT22;14871;52.702;5.230;2023-03-01T05:12:56;4.10;99.90
27413;DHT22;14871;52.702;5.230;2023-03-01T05:15:23;4.00;99.90
27413;DHT22;14871;52.702;5.230;2023-03-01T05:17:52;4.00;99.90
27413;DHT22;14871;52.702;5.230;2023-03-01T05:20:19;4.10;99.90
27413;DHT22;14871;52.702;5.230;2023-03-01T05:22:48;4.10;99.90
27413;DHT22;14871;52.702;5.230;2023-03-01T05:25:14;4.00;99.90
27413;DHT22;14871;52.702;5.230;2023-03-01T05:27:40;4.00;99.90
27413;DHT22;14871;52.702;5.230;2023-03-01T05:30:06;4.00;99.90
27413;DHT22;14871;52.702;5.230;2023-03-01T05:32:46;4.00;99.90
27413;DHT22;14871;52.702;5.230;2023-03-01T05:35:14;3.90;99.90
27413;DHT22;14871;52.702;5.230;2023-03-01T05:37:45;3.90;99.90
27413;DHT22;14871;52.702;5.230;2023-03-01T05:40:15;3.90;99.90
27413;DHT22;14871;52.702;5.230;2023-03-01T05:42:46;3.90;99.90
27413;DHT22;14871;52.702;5.230;2023-03-01T05:45:13;4.00;99.90
27413;DHT22;14871;52.702;5.230;2023-03-01T05:47:40;3.90;99.90
27413;DHT22;14871;52.702;5.230;2023-03-01T05:50:20;3.90;99.90
27413;DHT22;14871;52.702;5.230;2023-03-01T05:52:47;3.90;99.90
27413;DHT22;14871;52.702;5.230;2023-03-01T05:55:15;3.90;99.90
27413;DHT22;14871;52.702;5.230;2023-03-01T05:57:41;3.80;99.90
27413;DHT22;14871;52.702;5.230;2023-03-01T06:00:08;3.80;99.90
27413;DHT22;14871;52.702;5.230;2023-03-01T06:02:34;3.80;99.90
27413;DHT22;14871;52.702;5.230;2023-03-01T06:05:00;3.70;99.90
27413;DHT22;14871;52.702;5.230;2023-03-01T06:07:25;3.70;99.90
27413;DHT22;14871;52.702;5.230;2023-03-01T06:09:51;3.70;99.90
27413;DHT22;14871;52.702;5.230;2023-03-01T06:12:17;3.70;99.90
27413;DHT22;14871;52.702;5.230;2023-03-01T06:14:42;3.70;99.90
27413;DHT22;14871;52.702;5.230;2023-03-01T06:17:08;3.70;99.90
27413;DHT22;14871;52.702;5.230;2023-03-01T06:19:34;3.70;99.90
27413;DHT22;14871;52.702;5.230;2023-03-01T06:22:00;3.70;99.90
27413;DHT22;14871;52.702;5.230;2023-03-01T06:24:25;3.70;99.90
27413;DHT22;14871;52.702;5.230;2023-03-01T06:26:52;3.70;99.90
27413;DHT22;14871;52.702;5.230;2023-03-01T06:29:18;3.70;99.90
27413;DHT22;14871;52.702;5.230;2023-03-01T06:31:44;3.70;99.90
27413;DHT22;14871;52.702;5.230;2023-03-01T06:34:11;3.70;99.90
27413;DHT22;14871;52.702;5.230;2023-03-01T06:36:39;3.70;99.90
27413;DHT22;14871;52.702;5.230;2023-03-01T06:39:04;3.70;99.90
27413;DHT22;14871;52.702;5.230;2023-03-01T06:41:31;3.70;99.90
27413;DHT22;14871;52.702;5.230;2023-03-01T06:43:56;3.60;99.90
27413;DHT22;14871;52.702;5.230;2023-03-01T06:46:22;3.70;99.90
27413;DHT22;14871;52.702;5.230;2023-03-01T06:48:47;3.70;99.90
27413;DHT22;14871;52.702;5.230;2023-03-01T06:51:13;3.70;99.90
27413;DHT22;14871;52.702;5.230;2023-03-01T06:53:39;3.70;99.90
27413;DHT22;14871;52.702;5.230;2023-03-01T06:56:04;3.70;99.90
27413;DHT22;14871;52.702;5.230;2023-03-01T06:58:30;3.70;99.90
27413;DHT22;14871;52.702;5.230;2023-03-01T07:00:55;3.70;99.90
27413;DHT22;14871;52.702;5.230;2023-03-01T07:03:21;3.80;99.90
27413;DHT22;14871;52.702;5.230;2023-03-01T07:05:50;3.80;99.90
27413;DHT22;14871;52.702;5.230;2023-03-01T07:08:19;3.90;99.90
27413;DHT22;14871;52.702;5.230;2023-03-01T07:10:46;3.90;99.90
27413;DHT22;14871;52.702;5.230;2023-03-01T07:13:11;3.80;99.90
27413;DHT22;14871;52.702;5.230;2023-03-01T07:15:37;3.80;99.90
27413;DHT22;14871;52.702;5.230;2023-03-01T07:18:02;3.80;99.90
27413;DHT22;14871;52.702;5.230;2023-03-01T07:20:28;3.90;99.90
27413;DHT22;14871;52.702;5.230;2023-03-01T07:22:54;4.00;99.90
27413;DHT22;14871;52.702;5.230;2023-03-01T07:25:20;4.00;99.90
27413;DHT22;14871;52.702;5.230;2023-03-01T07:27:51;4.00;99.90
27413;DHT22;14871;52.702;5.230;2023-03-01T07:30:16;4.10;99.90
27413;DHT22;14871;52.702;5.230;2023-03-01T07:32:42;4.20;99.90
27413;DHT22;14871;52.702;5.230;2023-03-01T07:35:08;4.30;99.90
27413;DHT22;14871;52.702;5.230;2023-03-01T07:37:33;4.30;99.90
27413;DHT22;14871;52.702;5.230;2023-03-01T07:39:59;4.40;99.90
27413;DHT22;14871;52.702;5.230;2023-03-01T07:42:24;4.50;99.90
27413;DHT22;14871;52.702;5.230;2023-03-01T07:44:50;4.50;99.90
27413;DHT22;14871;52.702;5.230;2023-03-01T07:47:16;4.60;99.90
27413;DHT22;14871;52.702;5.230;2023-03-01T07:49:41;4.60;99.90
27413;DHT22;14871;52.702;5.230;2023-03-01T07:52:10;4.60;99.90
27413;DHT22;14871;52.702;5.230;2023-03-01T07:54:36;4.60;99.90
27413;DHT22;14871;52.702;5.230;2023-03-01T07:57:01;4.70;99.90
27413;DHT22;14871;52.702;5.230;2023-03-01T07:59:27;4.80;99.90
27413;DHT22;14871;52.702;5.230;2023-03-01T08:01:55;4.80;99.90
27413;DHT22;14871;52.702;5.230;2023-03-01T08:04:21;4.90;99.90
27413;DHT22;14871;52.702;5.230;2023-03-01T08:06:47;5.00;99.90
27413;DHT22;14871;52.702;5.230;2023-03-01T08:09:12;5.10;99.90
27413;DHT22;14871;52.702;5.230;2023-03-01T08:11:38;5.20;99.90
27413;DHT22;14871;52.702;5.230;2023-03-01T08:14:04;5.20;99.90
27413;DHT22;14871;52.702;5.230;2023-03-01T08:16:29;5.30;99.90
27413;DHT22;14871;52.702;5.230;2023-03-01T08:18:55;5.40;99.90
27413;DHT22;14871;52.702;5.230;2023-03-01T08:21:22;5.40;99.90
27413;DHT22;14871;52.702;5.230;2023-03-01T08:23:47;5.40;99.90
27413;DHT22;14871;52.702;5.230;2023-03-01T08:26:20;5.60;99.90
27413;DHT22;14871;52.702;5.230;2023-03-01T08:28:48;5.60;99.90
27413;DHT22;14871;52.702;5.230;2023-03-01T08:31:31;5.60;99.90
27413;DHT22;14871;52.702;5.230;2023-03-01T08:33:59;5.70;99.90
27413;DHT22;14871;52.702;5.230;2023-03-01T08:36:28;5.70;99.90
27413;DHT22;14871;52.702;5.230;2023-03-01T08:38:54;5.80;99.90
27413;DHT22;14871;52.702;5.230;2023-03-01T08:41:20;5.90;99.90
27413;DHT22;14871;52.702;5.230;2023-03-01T08:43:46;5.80;99.90
27413;DHT22;14871;52.702;5.230;2023-03-01T08:46:12;5.90;99.90
27413;DHT22;14871;52.702;5.230;2023-03-01T08:48:38;6.00;99.90
27413;DHT22;14871;52.702;5.230;2023-03-01T08:51:13;6.20;99.90
27413;DHT22;14871;52.702;5.230;2023-03-01T08:53:39;6.20;99.90
27413;DHT22;14871;52.702;5.230;2023-03-01T08:56:05;6.20;99.90
27413;DHT22;14871;52.702;5.230;2023-03-01T08:58:32;6.50;99.90
27413;DHT22;14871;52.702;5.230;2023-03-01T09:00:57;6.80;99.90
27413;DHT22;14871;52.702;5.230;2023-03-01T09:03:24;7.00;99.90
27413;DHT22;14871;52.702;5.230;2023-03-01T09:05:50;7.20;99.90
27413;DHT22;14871;52.702;5.230;2023-03-01T09:08:17;7.20;99.90
27413;DHT22;14871;52.702;5.230;2023-03-01T09:10:42;7.20;99.90
27413;DHT22;14871;52.702;5.230;2023-03-01T09:13:08;7.30;99.90
27413;DHT22;14871;52.702;5.230;2023-03-01T09:15:36;7.20;99.90
27413;DHT22;14871;52.702;5.230;2023-03-01T09:18:01;7.30;99.90
27413;DHT22;14871;52.702;5.230;2023-03-01T09:20:27;7.50;99.90
27413;DHT22;14871;52.702;5.230;2023-03-01T09:22:53;7.90;99.90
27413;DHT22;14871;52.702;5.230;2023-03-01T09:25:18;8.30;99.90
27413;DHT22;14871;52.702;5.230;2023-03-01T09:27:44;8.70;99.90
27413;DHT22;14871;52.702;5.230;2023-03-01T09:30:10;9.10;99.90
27413;DHT22;14871;52.702;5.230;2023-03-01T09:32:36;9.30;99.90
27413;DHT22;14871;52.702;5.230;2023-03-01T09:35:01;9.50;99.90
27413;DHT22;14871;52.702;5.230;2023-03-01T09:37:30;9.80;99.90
27413;DHT22;14871;52.702;5.230;2023-03-01T09:39:56;10.30;99.90
27413;DHT22;14871;52.702;5.230;2023-03-01T09:42:22;10.90;99.90
27413;DHT22;14871;52.702;5.230;2023-03-01T09:44:52;11.40;99.90
27413;DHT22;14871;52.702;5.230;2023-03-01T09:47:24;12.00;99.90
27413;DHT22;14871;52.702;5.230;2023-03-01T09:52:36;13.00;99.90
27413;DHT22;14871;52.702;5.230;2023-03-01T09:55:12;13.60;99.90
27413;DHT22;14871;52.702;5.230;2023-03-01T09:57:41;14.00;99.90
27413;DHT22;14871;52.702;5.230;2023-03-01T10:03:15;14.70;98.40
27413;DHT22;14871;52.702;5.230;2023-03-01T10:08:46;15.50;95.20
27413;DHT22;14871;52.702;5.230;2023-03-01T10:12:07;15.80;94.60
27413;DHT22;14871;52.702;5.230;2023-03-01T10:14:18;16.20;93.20
27413;DHT22;14871;52.702;5.230;2023-03-01T10:19:47;17.00;90.20
27413;DHT22;14871;52.702;5.230;2023-03-01T10:22:24;17.20;88.80
27413;DHT22;14871;52.702;5.230;2023-03-01T10:24:52;17.60;85.60
27413;DHT22;14871;52.702;5.230;2023-03-01T10:27:51;17.70;86.10
27413;DHT22;14871;52.702;5.230;2023-03-01T10:30:34;18.00;83.10
27413;DHT22;14871;52.702;5.230;2023-03-01T10:33:01;18.10;81.60
27413;DHT22;14871;52.702;5.230;2023-03-01T10:35:31;18.00;80.00
27413;DHT22;14871;52.702;5.230;2023-03-01T10:38:06;18.40;78.80
27413;DHT22;14871;52.702;5.230;2023-03-01T10:40:34;18.60;74.40
27413;DHT22;14871;52.702;5.230;2023-03-01T10:43:05;18.80;73.60
27413;DHT22;14871;52.702;5.230;2023-03-01T10:45:39;19.10;70.70
27413;DHT22;14871;52.702;5.230;2023-03-01T10:48:23;19.20;68.00
27413;DHT22;14871;52.702;5.230;2023-03-01T10:51:06;19.30;66.80
27413;DHT22;14871;52.702;5.230;2023-03-01T10:53:41;19.50;67.50
27413;DHT22;14871;52.702;5.230;2023-03-01T10:56:14;19.60;61.00
27413;DHT22;14871;52.702;5.230;2023-03-01T10:59:25;19.70;63.40
27413;DHT22;14871;52.702;5.230;2023-03-01T11:02:28;19.90;61.90
27413;DHT22;14871;52.702;5.230;2023-03-01T11:05:03;20.00;59.00
27413;DHT22;14871;52.702;5.230;2023-03-01T11:07:54;20.30;57.40
27413;DHT22;14871;52.702;5.230;2023-03-01T11:10:32;20.80;57.80
27413;DHT22;14871;52.702;5.230;2023-03-01T11:13:16;21.00;55.70
27413;DHT22;14871;52.702;5.230;2023-03-01T11:15:42;21.20;53.90
27413;DHT22;14871;52.702;5.230;2023-03-01T11:18:22;21.10;56.50
27413;DHT22;14871;52.702;5.230;2023-03-01T11:20:49;21.40;55.00
27413;DHT22;14871;52.702;5.230;2023-03-01T11:23:16;21.30;52.20
27413;DHT22;14871;52.702;5.230;2023-03-01T11:25:47;21.10;51.60
27413;DHT22;14871;52.702;5.230;2023-03-01T11:28:16;20.90;51.00
27413;DHT22;14871;52.702;5.230;2023-03-01T11:38:43;22.00;52.70
27413;DHT22;14871;52.702;5.230;2023-03-01T11:41:25;22.10;52.20
27413;DHT22;14871;52.702;5.230;2023-03-01T11:44:14;22.20;50.80
27413;DHT22;14871;52.702;5.230;2023-03-01T11:55:48;22.30;51.70
27413;DHT22;14871;52.702;5.230;2023-03-01T12:08:32;22.80;49.40
27413;DHT22;14871;52.702;5.230;2023-03-01T12:20:20;22.20;47.90
27413;DHT22;14871;52.702;5.230;2023-03-01T12:25:30;22.40;49.90
27413;DHT22;14871;52.702;5.230;2023-03-01T12:38:48;23.00;48.30
27413;DHT22;14871;52.702;5.230;2023-03-01T12:49:26;22.70;46.70
27413;DHT22;14871;52.702;5.230;2023-03-01T12:52:01;22.80;46.70
27413;DHT22;14871;52.702;5.230;2023-03-01T12:54:31;22.70;47.50
27413;DHT22;14871;52.702;5.230;2023-03-01T12:57:22;23.10;47.60
27413;DHT22;14871;52.702;5.230;2023-03-01T13:00:06;23.20;47.00
27413;DHT22;14871;52.702;5.230;2023-03-01T13:02:52;23.00;45.40
27413;DHT22;14871;52.702;5.230;2023-03-01T13:05:47;22.90;47.60
27413;DHT22;14871;52.702;5.230;2023-03-01T13:09:08;23.00;48.00
27413;DHT22;14871;52.702;5.230;2023-03-01T13:11:16;23.20;47.90
27413;DHT22;14871;52.702;5.230;2023-03-01T13:13:43;23.40;46.90
27413;DHT22;14871;52.702;5.230;2023-03-01T13:19:26;23.50;47.10
27413;DHT22;14871;52.702;5.230;2023-03-01T13:21:57;23.70;46.50
27413;DHT22;14871;52.702;5.230;2023-03-01T13:24:38;23.40;46.80
27413;DHT22;14871;52.702;5.230;2023-03-01T13:29:53;23.30;47.10
27413;DHT22;14871;52.702;5.230;2023-03-01T13:34:58;23.40;46.90
27413;DHT22;14871;52.702;5.230;2023-03-01T13:37:29;23.40;46.90
27413;DHT22;14871;52.702;5.230;2023-03-01T13:42:48;23.70;46.40
27413;DHT22;14871;52.702;5.230;2023-03-01T13:45:20;23.80;46.20
27413;DHT22;14871;52.702;5.230;2023-03-01T13:47:53;24.20;46.00
27413;DHT22;14871;52.702;5.230;2023-03-01T13:50:23;23.80;44.40
27413;DHT22;14871;52.702;5.230;2023-03-01T13:52:56;23.50;45.70
27413;DHT22;14871;52.702;5.230;2023-03-01T13:58:01;23.50;47.50
27413;DHT22;14871;52.702;5.230;2023-03-01T14:00:34;23.60;46.10
27413;DHT22;14871;52.702;5.230;2023-03-01T14:05:29;23.40;45.60
27413;DHT22;14871;52.702;5.230;2023-03-01T14:07:55;23.30;46.00
27413;DHT22;14871;52.702;5.230;2023-03-01T14:10:21;23.20;46.20
27413;DHT22;14871;52.702;5.230;2023-03-01T14:13:30;23.20;45.70
27413;DHT22;14871;52.702;5.230;2023-03-01T14:15:50;23.00;45.40
27413;DHT22;14871;52.702;5.230;2023-03-01T14:18:34;23.10;45.60
27413;DHT22;14871;52.702;5.230;2023-03-01T14:21:07;23.10;46.20
27413;DHT22;14871;52.702;5.230;2023-03-01T14:23:33;23.10;44.70
27413;DHT22;14871;52.702;5.230;2023-03-01T14:26:01;23.00;46.10
27413;DHT22;14871;52.702;5.230;2023-03-01T14:28:28;23.10;46.70
27413;DHT22;14871;52.702;5.230;2023-03-01T14:30:57;23.30;46.80
27413;DHT22;14871;52.702;5.230;2023-03-01T14:33:28;22.90;46.20
27413;DHT22;14871;52.702;5.230;2023-03-01T14:36:12;23.00;45.60
27413;DHT22;14871;52.702;5.230;2023-03-01T14:38:43;22.80;46.40
27413;DHT22;14871;52.702;5.230;2023-03-01T14:41:23;22.70;46.80
27413;DHT22;14871;52.702;5.230;2023-03-01T14:44:00;22.50;47.20
27413;DHT22;14871;52.702;5.230;2023-03-01T14:46:33;22.50;47.10
27413;DHT22;14871;52.702;5.230;2023-03-01T14:49:24;23.00;47.60
27413;DHT22;14871;52.702;5.230;2023-03-01T14:52:17;22.80;46.90
27413;DHT22;14871;52.702;5.230;2023-03-01T14:54:49;23.00;47.10
27413;DHT22;14871;52.702;5.230;2023-03-01T14:57:19;23.10;47.10
27413;DHT22;14871;52.702;5.230;2023-03-01T14:59:47;23.10;46.40
27413;DHT22;14871;52.702;5.230;2023-03-01T15:02:19;22.80;47.40
27413;DHT22;14871;52.702;5.230;2023-03-01T15:04:54;23.00;47.00
27413;DHT22;14871;52.702;5.230;2023-03-01T15:07:23;22.80;46.40
27413;DHT22;14871;52.702;5.230;2023-03-01T15:09:51;22.50;48.20
27413;DHT22;14871;52.702;5.230;2023-03-01T15:12:38;22.40;47.80
27413;DHT22;14871;52.702;5.230;2023-03-01T15:15:30;22.30;47.30
27413;DHT22;14871;52.702;5.230;2023-03-01T15:17:59;22.20;49.00
27413;DHT22;14871;52.702;5.230;2023-03-01T15:20:27;22.30;48.80
27413;DHT22;14871;52.702;5.230;2023-03-01T15:22:55;22.40;48.80
27413;DHT22;14871;52.702;5.230;2023-03-01T15:25:28;22.30;48.60
27413;DHT22;14871;52.702;5.230;2023-03-01T15:27:56;22.50;48.50
27413;DHT22;14871;52.702;5.230;2023-03-01T15:30:35;22.20;48.20
27413;DHT22;14871;52.702;5.230;2023-03-01T15:35:54;21.80;48.50
27413;DHT22;14871;52.702;5.230;2023-03-01T15:38:36;21.80;47.90
27413;DHT22;14871;52.702;5.230;2023-03-01T15:41:36;21.60;47.30
27413;DHT22;14871;52.702;5.230;2023-03-01T15:44:29;21.70;47.70
27413;DHT22;14871;52.702;5.230;2023-03-01T15:46:56;21.20;47.80
27413;DHT22;14871;52.702;5.230;2023-03-01T15:49:26;21.10;48.60
27413;DHT22;14871;52.702;5.230;2023-03-01T15:51:54;20.90;48.90
27413;DHT22;14871;52.702;5.230;2023-03-01T15:54:23;21.00;48.90
27413;DHT22;14871;52.702;5.230;2023-03-01T15:56:49;21.00;49.10
27413;DHT22;14871;52.702;5.230;2023-03-01T15:59:17;20.80;49.40
27413;DHT22;14871;52.702;5.230;2023-03-01T16:01:43;21.00;49.80
27413;DHT22;14871;52.702;5.230;2023-03-01T16:04:14;21.00;50.00
27413;DHT22;14871;52.702;5.230;2023-03-01T16:06:46;20.90;49.10
27413;DHT22;14871;52.702;5.230;2023-03-01T16:09:28;20.50;49.00
27413;DHT22;14871;52.702;5.230;2023-03-01T16:11:54;20.10;49.20
27413;DHT22;14871;52.702;5.230;2023-03-01T16:14:20;20.10;49.00
27413;DHT22;14871;52.702;5.230;2023-03-01T16:16:46;20.00;49.60
27413;DHT22;14871;52.702;5.230;2023-03-01T16:19:14;19.80;50.50
27413;DHT22;14871;52.702;5.230;2023-03-01T16:21:40;19.50;50.60
27413;DHT22;14871;52.702;5.230;2023-03-01T16:24:08;19.50;51.30
27413;DHT22;14871;52.702;5.230;2023-03-01T16:26:33;19.60;51.70
27413;DHT22;14871;52.702;5.230;2023-03-01T16:29:00;19.60;52.20
27413;DHT22;14871;52.702;5.230;2023-03-01T16:31:25;19.60;52.00
27413;DHT22;14871;52.702;5.230;2023-03-01T16:33:58;19.40;51.80
27413;DHT22;14871;52.702;5.230;2023-03-01T16:36:26;19.20;51.90
27413;DHT22;14871;52.702;5.230;2023-03-01T16:38:54;18.60;52.30
27413;DHT22;14871;52.702;5.230;2023-03-01T16:41:22;18.10;53.60
27413;DHT22;14871;52.702;5.230;2023-03-01T16:43:48;17.60;55.10
27413;DHT22;14871;52.702;5.230;2023-03-01T16:46:17;17.50;55.70
27413;DHT22;14871;52.702;5.230;2023-03-01T16:48:43;17.30;55.30
27413;DHT22;14871;52.702;5.230;2023-03-01T16:51:09;16.80;56.40
27413;DHT22;14871;52.702;5.230;2023-03-01T16:53:35;16.60;57.40
27413;DHT22;14871;52.702;5.230;2023-03-01T16:56:02;16.50;57.60
27413;DHT22;14871;52.702;5.230;2023-03-01T16:58:28;16.30;58.00
27413;DHT22;14871;52.702;5.230;2023-03-01T17:00:54;16.00;59.00
27413;DHT22;14871;52.702;5.230;2023-03-01T17:03:22;16.00;59.80
27413;DHT22;14871;52.702;5.230;2023-03-01T17:05:48;15.80;60.80
27413;DHT22;14871;52.702;5.230;2023-03-01T17:08:14;15.70;61.20
27413;DHT22;14871;52.702;5.230;2023-03-01T17:10:39;15.60;61.50
27413;DHT22;14871;52.702;5.230;2023-03-01T17:13:07;15.50;62.20
27413;DHT22;14871;52.702;5.230;2023-03-01T17:15:34;15.40;63.10
27413;DHT22;14871;52.702;5.230;2023-03-01T17:17:59;15.30;63.20
27413;DHT22;14871;52.702;5.230;2023-03-01T17:20:25;15.20;63.60
27413;DHT22;14871;52.702;5.230;2023-03-01T17:22:51;15.10;63.90
27413;DHT22;14871;52.702;5.230;2023-03-01T17:25:17;14.90;64.40
27413;DHT22;14871;52.702;5.230;2023-03-01T17:27:43;14.80;64.40
27413;DHT22;14871;52.702;5.230;2023-03-01T17:30:10;14.60;65.10
27413;DHT22;14871;52.702;5.230;2023-03-01T17:32:36;14.60;65.60
27413;DHT22;14871;52.702;5.230;2023-03-01T17:35:02;14.60;65.80
27413;DHT22;14871;52.702;5.230;2023-03-01T17:37:28;14.50;66.40
27413;DHT22;14871;52.702;5.230;2023-03-01T17:39:54;14.40;66.60
27413;DHT22;14871;52.702;5.230;2023-03-01T17:42:19;14.40;66.70